sensor_id;sensor_type;location;lat;lon;timestamp;P1;durP1;ratioP1;P2;durP2;ratioP2
38615;SDS011;24370;51.986;4.666;2023-11-18T00:00:19;19.97;;;9.80;;
38615;SDS011;24370;51.986;4.666;2023-11-18T00:02:45;18.87;;;8.67;;
38615;SDS011;24370;51.986;4.666;2023-11-18T00:05:11;18.60;;;10.33;;
38615;SDS011;24370;51.986;4.666;2023-11-18T00:07:37;19.77;;;9.00;;
38615;SDS011;24370;51.986;4.666;2023-11-18T00:10:03;16.60;;;9.13;;
38615;SDS011;24370;51.986;4.666;2023-11-18T00:12:29;17.50;;;9.30;;
38615;SDS011;24370;51.986;4.666;2023-11-18T00:14:55;19.20;;;9.87;;
38615;SDS011;24370;51.986;4.666;2023-11-18T00:17:20;17.67;;;9.10;;
38615;SDS011;24370;51.986;4.666;2023-11-18T00:19:45;16.93;;;9.17;;
38615;SDS011;24370;51.986;4.666;2023-11-18T00:22:11;17.50;;;8.93;;
38615;SDS011;24370;51.986;4.666;2023-11-18T00:24:36;15.43;;;8.17;;
38615;SDS011;24370;51.986;4.666;2023-11-18T00:27:03;18.70;;;9.10;;
38615;SDS011;24370;51.986;4.666;2023-11-18T00:29:32;19.20;;;9.17;;
38615;SDS011;24370;51.986;4.666;2023-11-18T00:31:58;19.70;;;9.90;;
38615;SDS011;24370;51.986;4.666;2023-11-18T00:34:24;21.03;;;9.50;;
38615;SDS011;24370;51.986;4.666;2023-11-18T00:36:49;22.23;;;10.50;;
38615;SDS011;24370;51.986;4.666;2023-11-18T00:39:15;23.60;;;10.13;;
38615;SDS011;24370;51.986;4.666;2023-11-18T00:41:40;17.77;;;8.97;;
38615;SDS011;24370;51.986;4.666;2023-11-18T00:44:05;23.03;;;10.10;;
38615;SDS011;24370;51.986;4.666;2023-11-18T00:46:32;19.63;;;9.27;;
38615;SDS011;24370;51.986;4.666;2023-11-18T00:49:00;19.47;;;9.87;;
38615;SDS011;24370;51.986;4.666;2023-11-18T00:51:26;17.67;;;9.70;;
38615;SDS011;24370;51.986;4.666;2023-11-18T00:53:52;20.57;;;9.40;;
38615;SDS011;24370;51.986;4.666;2023-11-18T00:56:19;17.23;;;9.30;;
38615;SDS011;24370;51.986;4.666;2023-11-18T00:58:46;22.50;;;9.57;;
38615;SDS011;24370;51.986;4.666;2023-11-18T01:01:12;19.10;;;10.63;;
38615;SDS011;24370;51.986;4.666;2023-11-18T01:03:38;21.10;;;10.20;;
38615;SDS011;24370;51.986;4.666;2023-11-18T01:06:03;19.50;;;10.47;;
38615;SDS011;24370;51.986;4.666;2023-11-18T01:08:31;20.20;;;10.73;;
38615;SDS011;24370;51.986;4.666;2023-11-18T01:10:56;19.80;;;9.73;;
38615;SDS011;24370;51.986;4.666;2023-11-18T01:13:22;21.47;;;9.63;;
38615;SDS011;24370;51.986;4.666;2023-11-18T01:15:48;21.27;;;9.83;;
38615;SDS011;24370;51.986;4.666;2023-11-18T01:18:14;18.43;;;10.27;;
38615;SDS011;24370;51.986;4.666;2023-11-18T01:20:40;20.97;;;10.40;;
38615;SDS011;24370;51.986;4.666;2023-11-18T01:23:05;16.63;;;10.37;;
38615;SDS011;24370;51.986;4.666;2023-11-18T01:25:30;17.33;;;9.93;;
38615;SDS011;24370;51.986;4.666;2023-11-18T01:27:56;23.13;;;9.13;;
38615;SDS011;24370;51.986;4.666;2023-11-18T01:30:21;24.47;;;9.80;;
38615;SDS011;24370;51.986;4.666;2023-11-18T01:32:49;19.47;;;10.47;;
38615;SDS011;24370;51.986;4.666;2023-11-18T01:35:14;22.63;;;10.23;;
38615;SDS011;24370;51.986;4.666;2023-11-18T01:37:40;21.43;;;10.30;;
38615;SDS011;24370;51.986;4.666;2023-11-18T01:40:05;17.77;;;9.17;;
38615;SDS011;24370;51.986;4.666;2023-11-18T01:42:32;18.40;;;9.97;;
38615;SDS011;24370;51.986;4.666;2023-11-18T01:44:58;17.63;;;9.57;;
38615;SDS011;24370;51.986;4.666;2023-11-18T01:47:24;21.73;;;11.37;;
38615;SDS011;24370;51.986;4.666;2023-11-18T01:49:51;19.13;;;10.70;;
38615;SDS011;24370;51.986;4.666;2023-11-18T01:52:17;18.63;;;11.00;;
38615;SDS011;24370;51.986;4.666;2023-11-18T01:54:43;21.13;;;9.90;;
38615;SDS011;24370;51.986;4.666;2023-11-18T01:57:09;20.50;;;10.50;;
38615;SDS011;24370;51.986;4.666;2023-11-18T01:59:35;19.50;;;10.07;;
38615;SDS011;24370;51.986;4.666;2023-11-18T02:02:03;17.30;;;9.27;;
38615;SDS011;24370;51.986;4.666;2023-11-18T02:04:29;23.60;;;10.40;;
38615;SDS011;24370;51.986;4.666;2023-11-18T02:06:55;21.70;;;10.50;;
38615;SDS011;24370;51.986;4.666;2023-11-18T02:09:22;18.80;;;9.07;;
38615;SDS011;24370;51.986;4.666;2023-11-18T02:14:29;16.13;;;8.57;;
38615;SDS011;24370;51.986;4.666;2023-11-18T02:16:59;17.57;;;10.27;;
38615;SDS011;24370;51.986;4.666;2023-11-18T02:19:27;18.17;;;9.83;;
38615;SDS011;24370;51.986;4.666;2023-11-18T02:21:55;19.27;;;10.63;;
38615;SDS011;24370;51.986;4.666;2023-11-18T02:24:28;16.77;;;9.77;;
38615;SDS011;24370;51.986;4.666;2023-11-18T02:27:06;17.53;;;9.23;;
38615;SDS011;24370;51.986;4.666;2023-11-18T02:29:38;16.40;;;9.90;;
38615;SDS011;24370;51.986;4.666;2023-11-18T02:35:10;19.47;;;8.67;;
38615;SDS011;24370;51.986;4.666;2023-11-18T02:37:39;17.30;;;9.37;;
38615;SDS011;24370;51.986;4.666;2023-11-18T02:40:09;17.30;;;8.47;;
38615;SDS011;24370;51.986;4.666;2023-11-18T02:42:43;18.60;;;9.13;;
38615;SDS011;24370;51.986;4.666;2023-11-18T02:45:11;22.87;;;8.97;;
38615;SDS011;24370;51.986;4.666;2023-11-18T02:47:41;15.50;;;8.60;;
38615;SDS011;24370;51.986;4.666;2023-11-18T02:50:09;21.10;;;10.53;;
38615;SDS011;24370;51.986;4.666;2023-11-18T02:52:39;16.17;;;8.33;;
38615;SDS011;24370;51.986;4.666;2023-11-18T02:55:05;16.13;;;9.10;;
38615;SDS011;24370;51.986;4.666;2023-11-18T02:57:37;13.60;;;7.87;;
38615;SDS011;24370;51.986;4.666;2023-11-18T03:00:04;16.73;;;9.00;;
38615;SDS011;24370;51.986;4.666;2023-11-18T03:02:30;15.23;;;7.50;;
38615;SDS011;24370;51.986;4.666;2023-11-18T03:04:56;15.33;;;7.70;;
38615;SDS011;24370;51.986;4.666;2023-11-18T03:07:22;15.97;;;7.07;;
38615;SDS011;24370;51.986;4.666;2023-11-18T03:09:48;14.30;;;7.17;;
38615;SDS011;24370;51.986;4.666;2023-11-18T03:12:13;20.47;;;7.83;;
38615;SDS011;24370;51.986;4.666;2023-11-18T03:14:39;15.60;;;7.77;;
38615;SDS011;24370;51.986;4.666;2023-11-18T03:17:04;17.97;;;7.37;;
38615;SDS011;24370;51.986;4.666;2023-11-18T03:19:32;17.40;;;7.43;;
38615;SDS011;24370;51.986;4.666;2023-11-18T03:22:02;12.90;;;7.43;;
38615;SDS011;24370;51.986;4.666;2023-11-18T03:24:28;17.80;;;7.90;;
38615;SDS011;24370;51.986;4.666;2023-11-18T03:26:54;15.97;;;7.40;;
38615;SDS011;24370;51.986;4.666;2023-11-18T03:29:20;16.40;;;7.07;;
38615;SDS011;24370;51.986;4.666;2023-11-18T03:31:45;13.03;;;8.33;;
38615;SDS011;24370;51.986;4.666;2023-11-18T03:34:13;18.47;;;7.70;;
38615;SDS011;24370;51.986;4.666;2023-11-18T03:36:39;12.87;;;8.20;;
38615;SDS011;24370;51.986;4.666;2023-11-18T03:39:04;16.80;;;9.53;;
38615;SDS011;24370;51.986;4.666;2023-11-18T03:41:31;20.87;;;8.83;;
38615;SDS011;24370;51.986;4.666;2023-11-18T03:43:56;15.33;;;8.83;;
38615;SDS011;24370;51.986;4.666;2023-11-18T03:46:22;20.73;;;8.77;;
38615;SDS011;24370;51.986;4.666;2023-11-18T03:48:47;25.83;;;10.10;;
38615;SDS011;24370;51.986;4.666;2023-11-18T03:51:13;19.67;;;9.73;;
38615;SDS011;24370;51.986;4.666;2023-11-18T03:53:41;17.37;;;9.83;;
38615;SDS011;24370;51.986;4.666;2023-11-18T03:56:07;15.97;;;9.30;;
38615;SDS011;24370;51.986;4.666;2023-11-18T03:58:33;22.73;;;10.60;;
38615;SDS011;24370;51.986;4.666;2023-11-18T04:01:00;20.07;;;10.30;;
38615;SDS011;24370;51.986;4.666;2023-11-18T04:03:26;18.27;;;10.53;;
38615;SDS011;24370;51.986;4.666;2023-11-18T04:05:52;18.43;;;10.87;;
38615;SDS011;24370;51.986;4.666;2023-11-18T04:08:17;18.67;;;9.97;;
38615;SDS011;24370;51.986;4.666;2023-11-18T04:10:42;17.80;;;9.80;;
38615;SDS011;24370;51.986;4.666;2023-11-18T04:13:08;21.70;;;10.63;;
38615;SDS011;24370;51.986;4.666;2023-11-18T04:15:33;18.50;;;10.60;;
38615;SDS011;24370;51.986;4.666;2023-11-18T04:18:00;18.57;;;9.90;;
38615;SDS011;24370;51.986;4.666;2023-11-18T04:20:26;23.40;;;12.27;;
38615;SDS011;24370;51.986;4.666;2023-11-18T04:22:51;20.13;;;10.40;;
38615;SDS011;24370;51.986;4.666;2023-11-18T04:25:16;20.70;;;9.87;;
38615;SDS011;24370;51.986;4.666;2023-11-18T04:27:42;19.23;;;10.63;;
38615;SDS011;24370;51.986;4.666;2023-11-18T04:30:07;23.90;;;9.97;;
38615;SDS011;24370;51.986;4.666;2023-11-18T04:32:37;19.87;;;10.40;;
38615;SDS011;24370;51.986;4.666;2023-11-18T04:35:03;18.97;;;10.27;;
38615;SDS011;24370;51.986;4.666;2023-11-18T04:37:36;18.47;;;10.47;;
38615;SDS011;24370;51.986;4.666;2023-11-18T04:40:02;21.70;;;10.37;;
38615;SDS011;24370;51.986;4.666;2023-11-18T04:42:28;16.20;;;9.03;;
38615;SDS011;24370;51.986;4.666;2023-11-18T04:44:55;17.80;;;9.37;;
38615;SDS011;24370;51.986;4.666;2023-11-18T04:47:21;18.00;;;9.60;;
38615;SDS011;24370;51.986;4.666;2023-11-18T04:49:46;20.23;;;9.20;;
38615;SDS011;24370;51.986;4.666;2023-11-18T04:52:11;23.23;;;9.70;;
38615;SDS011;24370;51.986;4.666;2023-11-18T04:54:37;18.57;;;9.47;;
38615;SDS011;24370;51.986;4.666;2023-11-18T04:57:02;18.33;;;9.30;;
38615;SDS011;24370;51.986;4.666;2023-11-18T04:59:28;21.33;;;11.03;;
38615;SDS011;24370;51.986;4.666;2023-11-18T05:01:55;17.20;;;8.83;;
38615;SDS011;24370;51.986;4.666;2023-11-18T05:04:21;16.23;;;7.80;;
38615;SDS011;24370;51.986;4.666;2023-11-18T05:06:46;16.60;;;8.20;;
38615;SDS011;24370;51.986;4.666;2023-11-18T05:09:12;16.90;;;8.90;;
38615;SDS011;24370;51.986;4.666;2023-11-18T05:11:37;18.10;;;9.73;;
38615;SDS011;24370;51.986;4.666;2023-11-18T05:14:03;20.17;;;9.07;;
38615;SDS011;24370;51.986;4.666;2023-11-18T05:16:29;16.77;;;9.00;;
38615;SDS011;24370;51.986;4.666;2023-11-18T05:18:55;18.90;;;8.47;;
38615;SDS011;24370;51.986;4.666;2023-11-18T05:21:20;19.67;;;9.30;;
38615;SDS011;24370;51.986;4.666;2023-11-18T05:23:46;24.33;;;9.07;;
38615;SDS011;24370;51.986;4.666;2023-11-18T05:26:12;17.53;;;8.33;;
38615;SDS011;24370;51.986;4.666;2023-11-18T05:28:37;16.47;;;8.83;;
38615;SDS011;24370;51.986;4.666;2023-11-18T05:31:03;18.63;;;8.50;;
38615;SDS011;24370;51.986;4.666;2023-11-18T05:33:30;15.50;;;7.33;;
38615;SDS011;24370;51.986;4.666;2023-11-18T05:35:56;16.67;;;8.83;;
38615;SDS011;24370;51.986;4.666;2023-11-18T05:38:22;15.07;;;8.57;;
38615;SDS011;24370;51.986;4.666;2023-11-18T05:40:48;17.87;;;8.47;;
38615;SDS011;24370;51.986;4.666;2023-11-18T05:43:28;16.77;;;7.43;;
38615;SDS011;24370;51.986;4.666;2023-11-18T05:46:05;19.90;;;8.53;;
38615;SDS011;24370;51.986;4.666;2023-11-18T05:48:46;16.20;;;8.50;;
38615;SDS011;24370;51.986;4.666;2023-11-18T05:51:13;23.63;;;8.90;;
38615;SDS011;24370;51.986;4.666;2023-11-18T05:53:39;24.83;;;9.70;;
38615;SDS011;24370;51.986;4.666;2023-11-18T05:56:05;24.30;;;7.90;;
38615;SDS011;24370;51.986;4.666;2023-11-18T05:58:31;18.93;;;7.70;;
38615;SDS011;24370;51.986;4.666;2023-11-18T06:00:57;18.80;;;7.40;;
38615;SDS011;24370;51.986;4.666;2023-11-18T06:03:23;19.07;;;8.57;;
38615;SDS011;24370;51.986;4.666;2023-11-18T06:05:48;14.60;;;7.87;;
38615;SDS011;24370;51.986;4.666;2023-11-18T06:08:14;15.80;;;7.90;;
38615;SDS011;24370;51.986;4.666;2023-11-18T06:10:39;24.57;;;8.73;;
38615;SDS011;24370;51.986;4.666;2023-11-18T06:13:05;20.33;;;7.20;;
38615;SDS011;24370;51.986;4.666;2023-11-18T06:15:31;22.83;;;7.47;;
38615;SDS011;24370;51.986;4.666;2023-11-18T06:17:57;17.07;;;7.20;;
38615;SDS011;24370;51.986;4.666;2023-11-18T06:20:23;22.83;;;8.17;;
38615;SDS011;24370;51.986;4.666;2023-11-18T06:22:49;16.30;;;7.50;;
38615;SDS011;24370;51.986;4.666;2023-11-18T06:25:14;20.73;;;7.90;;
38615;SDS011;24370;51.986;4.666;2023-11-18T06:27:42;20.53;;;6.97;;
38615;SDS011;24370;51.986;4.666;2023-11-18T06:30:10;17.70;;;7.50;;
38615;SDS011;24370;51.986;4.666;2023-11-18T06:32:37;19.00;;;7.70;;
38615;SDS011;24370;51.986;4.666;2023-11-18T06:35:04;18.13;;;7.00;;
38615;SDS011;24370;51.986;4.666;2023-11-18T06:37:33;15.43;;;6.60;;
38615;SDS011;24370;51.986;4.666;2023-11-18T06:39:58;17.70;;;7.37;;
38615;SDS011;24370;51.986;4.666;2023-11-18T06:42:24;18.27;;;6.70;;
38615;SDS011;24370;51.986;4.666;2023-11-18T06:44:50;18.27;;;7.30;;
38615;SDS011;24370;51.986;4.666;2023-11-18T06:47:15;16.20;;;7.37;;
38615;SDS011;24370;51.986;4.666;2023-11-18T06:49:44;22.20;;;6.63;;
38615;SDS011;24370;51.986;4.666;2023-11-18T06:52:10;16.00;;;7.17;;
38615;SDS011;24370;51.986;4.666;2023-11-18T06:54:37;17.57;;;6.47;;
38615;SDS011;24370;51.986;4.666;2023-11-18T06:57:06;20.00;;;7.23;;
38615;SDS011;24370;51.986;4.666;2023-11-18T06:59:32;17.27;;;6.57;;
38615;SDS011;24370;51.986;4.666;2023-11-18T07:01:57;18.83;;;6.43;;
38615;SDS011;24370;51.986;4.666;2023-11-18T07:04:23;13.37;;;6.87;;
38615;SDS011;24370;51.986;4.666;2023-11-18T07:06:49;16.83;;;7.27;;
38615;SDS011;24370;51.986;4.666;2023-11-18T07:09:14;11.67;;;6.33;;
38615;SDS011;24370;51.986;4.666;2023-11-18T07:11:43;19.90;;;6.40;;
38615;SDS011;24370;51.986;4.666;2023-11-18T07:14:09;19.43;;;6.30;;
38615;SDS011;24370;51.986;4.666;2023-11-18T07:16:39;19.00;;;7.43;;
38615;SDS011;24370;51.986;4.666;2023-11-18T07:19:04;17.17;;;7.70;;
38615;SDS011;24370;51.986;4.666;2023-11-18T07:21:30;18.90;;;7.03;;
38615;SDS011;24370;51.986;4.666;2023-11-18T07:23:56;22.57;;;6.67;;
38615;SDS011;24370;51.986;4.666;2023-11-18T07:26:22;23.73;;;6.83;;
38615;SDS011;24370;51.986;4.666;2023-11-18T07:28:49;16.67;;;6.20;;
38615;SDS011;24370;51.986;4.666;2023-11-18T07:31:14;15.07;;;6.57;;
38615;SDS011;24370;51.986;4.666;2023-11-18T07:33:43;19.23;;;6.50;;
38615;SDS011;24370;51.986;4.666;2023-11-18T07:36:10;15.23;;;5.70;;
38615;SDS011;24370;51.986;4.666;2023-11-18T07:38:36;15.10;;;7.00;;
38615;SDS011;24370;51.986;4.666;2023-11-18T07:41:01;16.23;;;6.87;;
38615;SDS011;24370;51.986;4.666;2023-11-18T07:43:27;12.27;;;6.17;;
38615;SDS011;24370;51.986;4.666;2023-11-18T07:45:53;12.30;;;5.80;;
38615;SDS011;24370;51.986;4.666;2023-11-18T07:48:19;13.20;;;6.47;;
38615;SDS011;24370;51.986;4.666;2023-11-18T07:50:45;14.53;;;5.83;;
38615;SDS011;24370;51.986;4.666;2023-11-18T07:53:12;11.73;;;5.33;;
38615;SDS011;24370;51.986;4.666;2023-11-18T07:55:38;19.83;;;6.23;;
38615;SDS011;24370;51.986;4.666;2023-11-18T07:58:08;12.70;;;5.60;;
38615;SDS011;24370;51.986;4.666;2023-11-18T08:00:41;11.37;;;5.00;;
38615;SDS011;24370;51.986;4.666;2023-11-18T08:03:08;18.05;;;5.65;;
38615;SDS011;24370;51.986;4.666;2023-11-18T08:05:43;14.33;;;5.63;;
38615;SDS011;24370;51.986;4.666;2023-11-18T08:08:13;11.20;;;5.10;;
38615;SDS011;24370;51.986;4.666;2023-11-18T08:10:41;9.53;;;4.67;;
38615;SDS011;24370;51.986;4.666;2023-11-18T08:13:08;13.70;;;5.50;;
38615;SDS011;24370;51.986;4.666;2023-11-18T08:15:43;10.73;;;4.83;;
38615;SDS011;24370;51.986;4.666;2023-11-18T08:18:11;10.23;;;5.20;;
38615;SDS011;24370;51.986;4.666;2023-11-18T08:20:37;10.97;;;5.07;;
38615;SDS011;24370;51.986;4.666;2023-11-18T08:23:02;10.77;;;5.47;;
38615;SDS011;24370;51.986;4.666;2023-11-18T08:25:29;8.93;;;4.63;;
38615;SDS011;24370;51.986;4.666;2023-11-18T08:27:55;11.33;;;4.80;;
38615;SDS011;24370;51.986;4.666;2023-11-18T08:30:20;15.70;;;5.63;;
38615;SDS011;24370;51.986;4.666;2023-11-18T08:32:48;18.93;;;5.47;;
38615;SDS011;24370;51.986;4.666;2023-11-18T08:35:14;9.73;;;5.10;;
38615;SDS011;24370;51.986;4.666;2023-11-18T08:37:40;15.17;;;5.40;;
38615;SDS011;24370;51.986;4.666;2023-11-18T08:40:06;10.43;;;4.93;;
38615;SDS011;24370;51.986;4.666;2023-11-18T08:42:46;9.60;;;5.07;;
38615;SDS011;24370;51.986;4.666;2023-11-18T08:47:42;13.53;;;4.80;;
38615;SDS011;24370;51.986;4.666;2023-11-18T08:50:09;15.30;;;4.50;;
38615;SDS011;24370;51.986;4.666;2023-11-18T08:52:37;11.93;;;5.20;;
38615;SDS011;24370;51.986;4.666;2023-11-18T08:55:08;10.40;;;3.73;;
38615;SDS011;24370;51.986;4.666;2023-11-18T08:57:43;13.73;;;5.20;;
38615;SDS011;24370;51.986;4.666;2023-11-18T09:00:28;10.20;;;4.63;;
38615;SDS011;24370;51.986;4.666;2023-11-18T09:03:10;10.20;;;4.20;;
38615;SDS011;24370;51.986;4.666;2023-11-18T09:06:05;10.07;;;4.13;;
38615;SDS011;24370;51.986;4.666;2023-11-18T09:08:42;11.77;;;4.77;;
38615;SDS011;24370;51.986;4.666;2023-11-18T09:11:08;11.93;;;4.27;;
38615;SDS011;24370;51.986;4.666;2023-11-18T09:13:42;11.00;;;4.33;;
38615;SDS011;24370;51.986;4.666;2023-11-18T09:16:09;12.83;;;4.40;;
38615;SDS011;24370;51.986;4.666;2023-11-18T09:18:36;10.27;;;4.10;;
38615;SDS011;24370;51.986;4.666;2023-11-18T09:21:04;9.57;;;4.87;;
38615;SDS011;24370;51.986;4.666;2023-11-18T09:23:39;11.90;;;4.20;;
38615;SDS011;24370;51.986;4.666;2023-11-18T09:26:05;9.93;;;4.57;;
38615;SDS011;24370;51.986;4.666;2023-11-18T09:28:32;6.83;;;4.43;;
38615;SDS011;24370;51.986;4.666;2023-11-18T09:31:03;9.23;;;3.40;;
38615;SDS011;24370;51.986;4.666;2023-11-18T09:33:30;7.53;;;3.67;;
38615;SDS011;24370;51.986;4.666;2023-11-18T09:36:03;16.70;;;3.77;;
38615;SDS011;24370;51.986;4.666;2023-11-18T09:38:33;9.87;;;3.03;;
38615;SDS011;24370;51.986;4.666;2023-11-18T09:41:06;7.40;;;3.77;;
38615;SDS011;24370;51.986;4.666;2023-11-18T09:43:36;18.43;;;4.70;;
38615;SDS011;24370;51.986;4.666;2023-11-18T09:48:41;0.10;;;0.10;;
38615;SDS011;24370;51.986;4.666;2023-11-18T09:51:12;0.00;;;0.00;;
38615;SDS011;24370;51.986;4.666;2023-11-18T09:53:41;0.00;;;0.00;;
38615;SDS011;24370;51.986;4.666;2023-11-18T09:56:13;0.00;;;0.00;;
38615;SDS011;24370;51.986;4.666;2023-11-18T09:58:54;0.00;;;0.00;;
38615;SDS011;24370;51.986;4.666;2023-11-18T10:01:28;0.00;;;0.00;;
38615;SDS011;24370;51.986;4.666;2023-11-18T10:03:58;0.00;;;0.00;;
38615;SDS011;24370;51.986;4.666;2023-11-18T10:06:24;0.50;;;0.50;;
38615;SDS011;24370;51.986;4.666;2023-11-18T10:08:53;0.10;;;0.10;;
38615;SDS011;24370;51.986;4.666;2023-11-18T10:11:20;0.60;;;0.60;;
38615;SDS011;24370;51.986;4.666;2023-11-18T10:13:47;25.77;;;2.60;;
38615;SDS011;24370;51.986;4.666;2023-11-18T10:16:14;0.20;;;0.20;;
38615;SDS011;24370;51.986;4.666;2023-11-18T10:18:39;0.20;;;0.20;;
38615;SDS011;24370;51.986;4.666;2023-11-18T10:21:14;0.43;;;0.43;;
38615;SDS011;24370;51.986;4.666;2023-11-18T10:23:51;0.00;;;0.00;;
38615;SDS011;24370;51.986;4.666;2023-11-18T10:26:25;0.98;;;0.43;;
38615;SDS011;24370;51.986;4.666;2023-11-18T10:28:50;0.23;;;0.23;;
38615;SDS011;24370;51.986;4.666;2023-11-18T10:31:18;0.23;;;0.23;;
38615;SDS011;24370;51.986;4.666;2023-11-18T10:33:44;0.03;;;0.03;;
38615;SDS011;24370;51.986;4.666;2023-11-18T10:36:18;1.33;;;1.07;;
38615;SDS011;24370;51.986;4.666;2023-11-18T10:38:48;0.53;;;0.53;;
38615;SDS011;24370;51.986;4.666;2023-11-18T10:41:20;1.27;;;0.73;;
38615;SDS011;24370;51.986;4.666;2023-11-18T10:43:46;0.00;;;0.00;;
38615;SDS011;24370;51.986;4.666;2023-11-18T10:46:13;0.00;;;0.00;;
38615;SDS011;24370;51.986;4.666;2023-11-18T10:51:07;0.00;;;0.00;;
38615;SDS011;24370;51.986;4.666;2023-11-18T10:53:34;0.10;;;0.10;;
38615;SDS011;24370;51.986;4.666;2023-11-18T10:56:02;2.70;;;2.53;;
38615;SDS011;24370;51.986;4.666;2023-11-18T10:58:37;0.00;;;0.00;;
38615;SDS011;24370;51.986;4.666;2023-11-18T11:01:06;0.00;;;0.00;;
38615;SDS011;24370;51.986;4.666;2023-11-18T11:03:51;0.00;;;0.00;;
38615;SDS011;24370;51.986;4.666;2023-11-18T11:06:20;0.00;;;0.00;;
38615;SDS011;24370;51.986;4.666;2023-11-18T11:08:48;0.00;;;0.00;;
38615;SDS011;24370;51.986;4.666;2023-11-18T11:11:14;0.00;;;0.00;;
38615;SDS011;24370;51.986;4.666;2023-11-18T11:13:46;0.00;;;0.00;;
38615;SDS011;24370;51.986;4.666;2023-11-18T11:16:14;0.07;;;0.07;;
38615;SDS011;24370;51.986;4.666;2023-11-18T11:18:47;0.00;;;0.00;;
38615;SDS011;24370;51.986;4.666;2023-11-18T11:21:19;0.80;;;0.80;;
38615;SDS011;24370;51.986;4.666;2023-11-18T11:24:06;0.00;;;0.00;;
38615;SDS011;24370;51.986;4.666;2023-11-18T11:29:25;0.10;;;0.10;;
38615;SDS011;24370;51.986;4.666;2023-11-18T11:34:56;0.00;;;0.00;;
38615;SDS011;24370;51.986;4.666;2023-11-18T11:37:30;0.27;;;0.27;;
38615;SDS011;24370;51.986;4.666;2023-11-18T11:39:59;0.20;;;0.20;;
38615;SDS011;24370;51.986;4.666;2023-11-18T11:42:29;0.10;;;0.10;;
38615;SDS011;24370;51.986;4.666;2023-11-18T11:44:56;0.00;;;0.00;;
38615;SDS011;24370;51.986;4.666;2023-11-18T11:47:23;0.00;;;0.00;;
38615;SDS011;24370;51.986;4.666;2023-11-18T11:50:07;0.00;;;0.00;;
38615;SDS011;24370;51.986;4.666;2023-11-18T11:52:44;0.93;;;0.93;;
38615;SDS011;24370;51.986;4.666;2023-11-18T11:57:57;0.00;;;0.00;;
38615;SDS011;24370;51.986;4.666;2023-11-18T12:00:23;0.00;;;0.00;;
38615;SDS011;24370;51.986;4.666;2023-11-18T12:02:51;0.00;;;0.00;;
38615;SDS011;24370;51.986;4.666;2023-11-18T12:05:19;0.00;;;0.00;;
38615;SDS011;24370;51.986;4.666;2023-11-18T12:07:51;0.00;;;0.00;;
38615;SDS011;24370;51.986;4.666;2023-11-18T12:10:20;0.23;;;0.23;;
38615;SDS011;24370;51.986;4.666;2023-11-18T12:12:46;0.20;;;0.20;;
38615;SDS011;24370;51.986;4.666;2023-11-18T12:15:12;0.00;;;0.00;;
38615;SDS011;24370;51.986;4.666;2023-11-18T12:23:22;0.00;;;0.00;;
38615;SDS011;24370;51.986;4.666;2023-11-18T12:25:53;0.00;;;0.00;;
38615;SDS011;24370;51.986;4.666;2023-11-18T12:33:21;0.00;;;0.00;;
38615;SDS011;24370;51.986;4.666;2023-11-18T12:41:03;0.00;;;0.00;;
38615;SDS011;24370;51.986;4.666;2023-11-18T12:43:59;0.00;;;0.00;;
38615;SDS011;24370;51.986;4.666;2023-11-18T12:46:52;0.00;;;0.00;;
38615;SDS011;24370;51.986;4.666;2023-11-18T12:49:20;0.00;;;0.00;;
38615;SDS011;24370;51.986;4.666;2023-11-18T12:51:49;0.00;;;0.00;;
38615;SDS011;24370;51.986;4.666;2023-11-18T12:54:24;0.00;;;0.00;;
38615;SDS011;24370;51.986;4.666;2023-11-18T12:56:54;0.10;;;0.10;;
38615;SDS011;24370;51.986;4.666;2023-11-18T12:59:20;0.20;;;0.20;;
38615;SDS011;24370;51.986;4.666;2023-11-18T13:01:46;0.63;;;0.57;;
38615;SDS011;24370;51.986;4.666;2023-11-18T13:04:18;0.10;;;0.10;;
38615;SDS011;24370;51.986;4.666;2023-11-18T13:06:45;0.10;;;0.10;;
38615;SDS011;24370;51.986;4.666;2023-11-18T13:09:11;0.03;;;0.03;;
38615;SDS011;24370;51.986;4.666;2023-11-18T13:11:48;0.33;;;0.33;;
38615;SDS011;24370;51.986;4.666;2023-11-18T13:14:13;0.63;;;0.57;;
38615;SDS011;24370;51.986;4.666;2023-11-18T13:16:39;1.30;;;1.20;;
38615;SDS011;24370;51.986;4.666;2023-11-18T13:19:06;0.20;;;0.20;;
38615;SDS011;24370;51.986;4.666;2023-11-18T13:21:35;0.00;;;0.00;;
38615;SDS011;24370;51.986;4.666;2023-11-18T13:24:01;0.00;;;0.00;;
38615;SDS011;24370;51.986;4.666;2023-11-18T13:26:30;0.20;;;0.20;;
38615;SDS011;24370;51.986;4.666;2023-11-18T13:28:58;0.00;;;0.00;;
38615;SDS011;24370;51.986;4.666;2023-11-18T13:31:24;0.10;;;0.10;;
38615;SDS011;24370;51.986;4.666;2023-11-18T13:33:49;0.87;;;0.87;;
38615;SDS011;24370;51.986;4.666;2023-11-18T13:36:16;0.10;;;0.10;;
38615;SDS011;24370;51.986;4.666;2023-11-18T13:38:41;0.10;;;0.10;;
38615;SDS011;24370;51.986;4.666;2023-11-18T13:41:07;0.50;;;0.50;;
38615;SDS011;24370;51.986;4.666;2023-11-18T13:43:44;0.00;;;0.00;;
38615;SDS011;24370;51.986;4.666;2023-11-18T13:46:12;0.00;;;0.00;;
38615;SDS011;24370;51.986;4.666;2023-11-18T13:48:38;0.00;;;0.00;;
38615;SDS011;24370;51.986;4.666;2023-11-18T13:51:11;0.00;;;0.00;;
38615;SDS011;24370;51.986;4.666;2023-11-18T13:53:40;0.00;;;0.00;;
38615;SDS011;24370;51.986;4.666;2023-11-18T13:56:08;0.30;;;0.30;;
38615;SDS011;24370;51.986;4.666;2023-11-18T13:58:35;0.00;;;0.00;;
38615;SDS011;24370;51.986;4.666;2023-11-18T14:01:08;0.00;;;0.00;;
38615;SDS011;24370;51.986;4.666;2023-11-18T14:03:37;0.00;;;0.00;;
38615;SDS011;24370;51.986;4.666;2023-11-18T14:06:07;0.03;;;0.03;;
38615;SDS011;24370;51.986;4.666;2023-11-18T14:08:35;0.10;;;0.10;;
38615;SDS011;24370;51.986;4.666;2023-11-18T14:11:01;0.00;;;0.00;;
38615;SDS011;24370;51.986;4.666;2023-11-18T14:13:29;0.77;;;0.77;;
38615;SDS011;24370;51.986;4.666;2023-11-18T14:15:56;0.10;;;0.10;;
38615;SDS011;24370;51.986;4.666;2023-11-18T14:18:22;0.00;;;0.00;;
38615;SDS011;24370;51.986;4.666;2023-11-18T14:20:48;0.13;;;0.13;;
38615;SDS011;24370;51.986;4.666;2023-11-18T14:23:14;0.00;;;0.00;;
38615;SDS011;24370;51.986;4.666;2023-11-18T14:25:40;0.27;;;0.27;;
38615;SDS011;24370;51.986;4.666;2023-11-18T14:28:06;0.43;;;0.43;;
38615;SDS011;24370;51.986;4.666;2023-11-18T14:30:34;0.73;;;0.73;;
38615;SDS011;24370;51.986;4.666;2023-11-18T14:32:59;0.10;;;0.10;;
38615;SDS011;24370;51.986;4.666;2023-11-18T14:35:25;0.03;;;0.03;;
38615;SDS011;24370;51.986;4.666;2023-11-18T14:37:51;0.00;;;0.00;;
38615;SDS011;24370;51.986;4.666;2023-11-18T14:40:16;0.00;;;0.00;;
38615;SDS011;24370;51.986;4.666;2023-11-18T14:42:42;0.00;;;0.00;;
38615;SDS011;24370;51.986;4.666;2023-11-18T14:45:12;0.00;;;0.00;;
38615;SDS011;24370;51.986;4.666;2023-11-18T14:47:39;0.20;;;0.20;;
38615;SDS011;24370;51.986;4.666;2023-11-18T14:50:05;0.53;;;0.20;;
38615;SDS011;24370;51.986;4.666;2023-11-18T14:52:40;0.00;;;0.00;;
38615;SDS011;24370;51.986;4.666;2023-11-18T14:55:06;0.00;;;0.00;;
38615;SDS011;24370;51.986;4.666;2023-11-18T14:57:37;0.00;;;0.00;;
38615;SDS011;24370;51.986;4.666;2023-11-18T15:00:06;0.10;;;0.10;;
38615;SDS011;24370;51.986;4.666;2023-11-18T15:02:33;0.27;;;0.27;;
38615;SDS011;24370;51.986;4.666;2023-11-18T15:05:00;0.00;;;0.00;;
38615;SDS011;24370;51.986;4.666;2023-11-18T15:07:28;0.30;;;0.30;;
38615;SDS011;24370;51.986;4.666;2023-11-18T15:09:54;0.00;;;0.00;;
38615;SDS011;24370;51.986;4.666;2023-11-18T15:12:19;0.00;;;0.00;;
38615;SDS011;24370;51.986;4.666;2023-11-18T15:14:45;0.10;;;0.10;;
38615;SDS011;24370;51.986;4.666;2023-11-18T15:17:10;1.00;;;0.90;;
38615;SDS011;24370;51.986;4.666;2023-11-18T15:19:38;2.10;;;0.20;;